sensor_id;sensor_type;location;lat;lon;timestamp;pressure;altitude;pressure_sealevel;temperature;humidity
74075;BME280;62428;51.412;5.432;2023-07-24T00:01:55;100363.28;;;17.45;100.00
74075;BME280;62428;51.412;5.432;2023-07-24T00:04:21;100357.03;;;17.45;100.00
74075;BME280;62428;51.412;5.432;2023-07-24T00:06:46;100372.19;;;17.46;100.00
74075;BME280;62428;51.412;5.432;2023-07-24T00:09:11;100361.34;;;17.46;100.00
74075;BME280;62428;51.412;5.432;2023-07-24T00:11:37;100353.53;;;17.44;100.00
74075;BME280;62428;51.412;5.432;2023-07-24T00:14:02;100351.97;;;17.43;100.00
74075;BME280;62428;51.412;5.432;2023-07-24T00:16:27;100349.25;;;17.43;100.00
74075;BME280;62428;51.412;5.432;2023-07-24T00:18:53;100344.94;;;17.42;100.00
74075;BME280;62428;51.412;5.432;2023-07-24T00:21:18;100346.44;;;17.40;100.00
74075;BME280;62428;51.412;5.432;2023-07-24T00:23:44;100340.22;;;17.39;100.00
74075;BME280;62428;51.412;5.432;2023-07-24T00:26:09;100334.78;;;17.39;100.00
74075;BME280;62428;51.412;5.432;2023-07-24T00:28:34;100328.56;;;17.39;100.00
74075;BME280;62428;51.412;5.432;2023-07-24T00:31:00;100328.56;;;17.39;100.00
74075;BME280;62428;51.412;5.432;2023-07-24T00:33:25;100316.50;;;17.36;100.00
74075;BME280;62428;51.412;5.432;2023-07-24T00:35:50;100310.25;;;17.36;100.00
74075;BME280;62428;51.412;5.432;2023-07-24T00:38:19;100312.97;;;17.36;100.00
74075;BME280;62428;51.412;5.432;2023-07-24T00:40:45;100317.63;;;17.35;100.00
74075;BME280;62428;51.412;5.432;2023-07-24T00:43:10;100306.75;;;17.35;100.00
74075;BME280;62428;51.412;5.432;2023-07-24T00:45:35;100305.97;;;17.35;100.00
74075;BME280;62428;51.412;5.432;2023-07-24T00:48:01;100305.97;;;17.35;100.00
74075;BME280;62428;51.412;5.432;2023-07-24T00:50:27;100311.06;;;17.36;100.00
74075;BME280;62428;51.412;5.432;2023-07-24T00:52:54;100315.69;;;17.36;100.00
74075;BME280;62428;51.412;5.432;2023-07-24T00:55:19;100305.63;;;17.36;100.00
74075;BME280;62428;51.412;5.432;2023-07-24T00:57:45;100306.41;;;17.37;100.00
74075;BME280;62428;51.412;5.432;2023-07-24T01:00:11;100311.50;;;17.38;100.00
74075;BME280;62428;51.412;5.432;2023-07-24T01:02:37;100302.56;;;17.38;100.00
74075;BME280;62428;51.412;5.432;2023-07-24T01:05:03;100304.47;;;17.37;100.00
74075;BME280;62428;51.412;5.432;2023-07-24T01:07:29;100300.63;;;17.38;100.00
74075;BME280;62428;51.412;5.432;2023-07-24T01:09:54;100299.88;;;17.38;100.00
74075;BME280;62428;51.412;5.432;2023-07-24T01:12:27;100287.41;;;17.37;100.00
74075;BME280;62428;51.412;5.432;2023-07-24T01:17:35;100268.75;;;17.35;100.00
74075;BME280;62428;51.412;5.432;2023-07-24T01:20:08;100267.19;;;17.34;100.00
74075;BME280;62428;51.412;5.432;2023-07-24T01:22:54;100267.19;;;17.34;100.00
74075;BME280;62428;51.412;5.432;2023-07-24T01:25:27;100269.91;;;17.34;100.00
74075;BME280;62428;51.412;5.432;2023-07-24T01:27:56;100264.09;;;17.36;100.00
74075;BME280;62428;51.412;5.432;2023-07-24T01:30:21;100253.25;;;17.36;100.00
74075;BME280;62428;51.412;5.432;2023-07-24T01:32:47;100257.19;;;17.38;100.00
74075;BME280;62428;51.412;5.432;2023-07-24T01:35:13;100249.41;;;17.37;100.00
74075;BME280;62428;51.412;5.432;2023-07-24T01:37:39;100249.41;;;17.37;100.00
74075;BME280;62428;51.412;5.432;2023-07-24T01:40:07;100250.19;;;17.37;100.00
74075;BME280;62428;51.412;5.432;2023-07-24T01:42:34;100244.75;;;17.37;100.00
74075;BME280;62428;51.412;5.432;2023-07-24T01:44:59;100247.47;;;17.37;100.00
74075;BME280;62428;51.412;5.432;2023-07-24T01:47:25;100255.25;;;17.39;100.00
74075;BME280;62428;51.412;5.432;2023-07-24T01:49:50;100261.47;;;17.39;100.00
74075;BME280;62428;51.412;5.432;2023-07-24T01:52:16;100252.56;;;17.39;100.00
74075;BME280;62428;51.412;5.432;2023-07-24T01:54:41;100247.13;;;17.39;100.00
74075;BME280;62428;51.412;5.432;2023-07-24T01:57:07;100235.81;;;17.37;100.00
74075;BME280;62428;51.412;5.432;2023-07-24T01:59:32;100236.59;;;17.37;100.00
74075;BME280;62428;51.412;5.432;2023-07-24T02:01:58;100242.47;;;17.39;100.00
74075;BME280;62428;51.412;5.432;2023-07-24T02:04:23;100220.75;;;17.39;100.00
74075;BME280;62428;51.412;5.432;2023-07-24T02:06:49;100214.53;;;17.39;100.00
74075;BME280;62428;51.412;5.432;2023-07-24T02:09:15;100216.81;;;17.37;100.00
74075;BME280;62428;51.412;5.432;2023-07-24T02:11:41;100220.31;;;17.37;100.00
74075;BME280;62428;51.412;5.432;2023-07-24T02:14:06;100211.41;;;17.37;100.00
74075;BME280;62428;51.412;5.432;2023-07-24T02:16:32;100211.75;;;17.35;100.00
74075;BME280;62428;51.412;5.432;2023-07-24T02:18:57;100204.38;;;17.36;100.00
74075;BME280;62428;51.412;5.432;2023-07-24T02:21:23;100214.81;;;17.34;100.00
74075;BME280;62428;51.412;5.432;2023-07-24T02:23:48;100215.97;;;17.33;100.00
74075;BME280;62428;51.412;5.432;2023-07-24T02:26:13;100209.72;;;17.32;100.00
74075;BME280;62428;51.412;5.432;2023-07-24T02:28:39;100198.88;;;17.32;100.00
74075;BME280;62428;51.412;5.432;2023-07-24T02:31:04;100210.09;;;17.31;100.00
74075;BME280;62428;51.412;5.432;2023-07-24T02:33:29;100202.31;;;17.29;100.00
74075;BME280;62428;51.412;5.432;2023-07-24T02:35:55;100197.22;;;17.27;100.00
74075;BME280;62428;51.412;5.432;2023-07-24T02:38:21;100201.06;;;17.26;100.00
74075;BME280;62428;51.412;5.432;2023-07-24T02:40:46;100199.50;;;17.25;100.00
74075;BME280;62428;51.412;5.432;2023-07-24T02:43:12;100204.94;;;17.25;100.00
74075;BME280;62428;51.412;5.432;2023-07-24T02:45:37;100200.63;;;17.24;100.00
74075;BME280;62428;51.412;5.432;2023-07-24T02:48:03;100209.59;;;17.25;100.00
74075;BME280;62428;51.412;5.432;2023-07-24T02:50:28;100207.22;;;17.23;100.00
74075;BME280;62428;51.412;5.432;2023-07-24T02:52:54;100217.97;;;17.20;100.00
74075;BME280;62428;51.412;5.432;2023-07-24T02:55:19;100215.28;;;17.20;100.00
74075;BME280;62428;51.412;5.432;2023-07-24T02:57:45;100201.25;;;17.18;100.00
74075;BME280;62428;51.412;5.432;2023-07-24T03:00:11;100205.09;;;17.17;100.00
74075;BME280;62428;51.412;5.432;2023-07-24T03:02:38;100210.53;;;17.17;100.00
74075;BME280;62428;51.412;5.432;2023-07-24T03:05:03;100201.63;;;17.16;100.00
74075;BME280;62428;51.412;5.432;2023-07-24T03:07:29;100204.69;;;17.15;100.00
74075;BME280;62428;51.412;5.432;2023-07-24T03:09:54;100204.69;;;17.15;100.00
74075;BME280;62428;51.412;5.432;2023-07-24T03:12:19;100196.09;;;17.13;100.00
74075;BME280;62428;51.412;5.432;2023-07-24T03:14:45;100193.66;;;17.07;100.00
74075;BME280;62428;51.412;5.432;2023-07-24T03:17:10;100186.84;;;16.98;100.00
74075;BME280;62428;51.412;5.432;2023-07-24T03:19:36;100191.00;;;16.95;100.00
74075;BME280;62428;51.412;5.432;2023-07-24T03:22:01;100182.44;;;16.93;100.00
74075;BME280;62428;51.412;5.432;2023-07-24T03:24:27;100192.50;;;16.93;100.00
74075;BME280;62428;51.412;5.432;2023-07-24T03:26:53;100184.38;;;16.93;100.00
74075;BME280;62428;51.412;5.432;2023-07-24T03:29:18;100180.06;;;16.91;100.00
74075;BME280;62428;51.412;5.432;2023-07-24T03:31:43;100186.31;;;16.92;100.00
74075;BME280;62428;51.412;5.432;2023-07-24T03:34:09;100173.88;;;16.91;100.00
74075;BME280;62428;51.412;5.432;2023-07-24T03:36:34;100176.59;;;16.91;100.00
74075;BME280;62428;51.412;5.432;2023-07-24T03:39:00;100171.50;;;16.89;100.00
74075;BME280;62428;51.412;5.432;2023-07-24T03:41:26;100173.88;;;16.91;100.00
74075;BME280;62428;51.412;5.432;2023-07-24T03:43:51;100182.78;;;16.91;100.00
74075;BME280;62428;51.412;5.432;2023-07-24T03:46:17;100172.66;;;16.88;100.00
74075;BME280;62428;51.412;5.432;2023-07-24T03:48:42;100169.47;;;16.86;100.00
74075;BME280;62428;51.412;5.432;2023-07-24T03:51:08;100169.84;;;16.85;100.00
74075;BME280;62428;51.412;5.432;2023-07-24T03:53:33;100174.81;;;16.83;100.00
74075;BME280;62428;51.412;5.432;2023-07-24T03:55:59;100181.06;;;16.83;100.00
74075;BME280;62428;51.412;5.432;2023-07-24T03:58:24;100179.78;;;16.81;100.00
74075;BME280;62428;51.412;5.432;2023-07-24T04:00:50;100176.28;;;16.80;100.00
74075;BME280;62428;51.412;5.432;2023-07-24T04:03:15;100182.84;;;16.79;100.00
74075;BME280;62428;51.412;5.432;2023-07-24T04:05:41;100176.19;;;16.77;100.00
74075;BME280;62428;51.412;5.432;2023-07-24T04:08:06;100181.63;;;16.77;100.00
74075;BME280;62428;51.412;5.432;2023-07-24T04:10:31;100192.81;;;16.75;100.00
74075;BME280;62428;51.412;5.432;2023-07-24T04:12:57;100210.25;;;16.74;100.00
74075;BME280;62428;51.412;5.432;2023-07-24T04:15:23;100219.84;;;16.71;100.00
74075;BME280;62428;51.412;5.432;2023-07-24T04:17:48;100228.31;;;16.70;100.00
74075;BME280;62428;51.412;5.432;2023-07-24T04:20:14;100225.16;;;16.68;100.00
74075;BME280;62428;51.412;5.432;2023-07-24T04:22:39;100201.91;;;16.67;100.00
74075;BME280;62428;51.412;5.432;2023-07-24T04:25:05;100198.75;;;16.65;100.00
74075;BME280;62428;51.412;5.432;2023-07-24T04:27:30;100191.31;;;16.62;100.00
74075;BME280;62428;51.412;5.432;2023-07-24T04:29:56;100189.72;;;16.61;100.00
74075;BME280;62428;51.412;5.432;2023-07-24T04:32:21;100200.84;;;16.56;100.00
74075;BME280;62428;51.412;5.432;2023-07-24T04:34:46;100226.28;;;16.51;100.00
74075;BME280;62428;51.412;5.432;2023-07-24T04:37:12;100223.13;;;16.49;100.00
74075;BME280;62428;51.412;5.432;2023-07-24T04:39:40;100220.66;;;16.44;100.00
74075;BME280;62428;51.412;5.432;2023-07-24T04:42:05;100229.47;;;16.41;100.00
74075;BME280;62428;51.412;5.432;2023-07-24T04:44:31;100217.75;;;16.37;100.00
74075;BME280;62428;51.412;5.432;2023-07-24T04:46:57;100207.59;;;16.33;100.00
74075;BME280;62428;51.412;5.432;2023-07-24T04:49:23;100210.31;;;16.33;100.00
74075;BME280;62428;51.412;5.432;2023-07-24T04:51:48;100194.75;;;16.30;100.00
74075;BME280;62428;51.412;5.432;2023-07-24T04:54:13;100193.16;;;16.29;100.00
74075;BME280;62428;51.412;5.432;2023-07-24T04:56:39;100196.59;;;16.26;100.00
74075;BME280;62428;51.412;5.432;2023-07-24T04:59:04;100203.13;;;16.25;100.00
74075;BME280;62428;51.412;5.432;2023-07-24T05:01:29;100201.09;;;16.22;100.00
74075;BME280;62428;51.412;5.432;2023-07-24T05:03:55;100204.53;;;16.19;100.00
74075;BME280;62428;51.412;5.432;2023-07-24T05:06:20;100202.16;;;16.18;100.00
74075;BME280;62428;51.412;5.432;2023-07-24T05:08:46;100212.66;;;16.19;100.00
74075;BME280;62428;51.412;5.432;2023-07-24T05:11:11;100213.44;;;16.20;100.00
74075;BME280;62428;51.412;5.432;2023-07-24T05:13:36;100203.38;;;16.20;100.00
74075;BME280;62428;51.412;5.432;2023-07-24T05:16:02;100205.41;;;16.23;100.00
74075;BME280;62428;51.412;5.432;2023-07-24T05:18:27;100210.47;;;16.25;100.00
74075;BME280;62428;51.412;5.432;2023-07-24T05:20:53;100224.03;;;16.25;100.00
74075;BME280;62428;51.412;5.432;2023-07-24T05:23:18;100232.25;;;16.28;100.00
74075;BME280;62428;51.412;5.432;2023-07-24T05:25:43;100219.06;;;16.27;100.00
74075;BME280;62428;51.412;5.432;2023-07-24T05:28:09;100221.75;;;16.27;100.00
74075;BME280;62428;51.412;5.432;2023-07-24T05:30:35;100227.19;;;16.27;100.00
74075;BME280;62428;51.412;5.432;2023-07-24T05:33:00;100235.75;;;16.29;100.00
74075;BME280;62428;51.412;5.432;2023-07-24T05:35:26;100238.91;;;16.31;100.00
74075;BME280;62428;51.412;5.432;2023-07-24T05:37:51;100234.25;;;16.31;100.00
74075;BME280;62428;51.412;5.432;2023-07-24T05:40:17;100235.84;;;16.32;100.00
74075;BME280;62428;51.412;5.432;2023-07-24T05:42:42;100233.59;;;16.34;100.00
74075;BME280;62428;51.412;5.432;2023-07-24T05:45:09;100242.59;;;16.39;100.00
74075;BME280;62428;51.412;5.432;2023-07-24T05:47:36;100248.47;;;16.41;100.00
74075;BME280;62428;51.412;5.432;2023-07-24T05:50:01;100250.03;;;16.42;100.00
74075;BME280;62428;51.412;5.432;2023-07-24T05:52:27;100248.91;;;16.43;100.00
74075;BME280;62428;51.412;5.432;2023-07-24T05:54:53;100246.22;;;16.43;100.00
74075;BME280;62428;51.412;5.432;2023-07-24T05:57:19;100237.38;;;16.46;100.00
74075;BME280;62428;51.412;5.432;2023-07-24T05:59:44;100243.66;;;16.50;100.00
74075;BME280;62428;51.412;5.432;2023-07-24T06:02:09;100240.63;;;16.51;100.00
74075;BME280;62428;51.412;5.432;2023-07-24T06:04:36;100241.16;;;16.57;100.00
74075;BME280;62428;51.412;5.432;2023-07-24T06:07:01;100235.16;;;16.64;100.00
74075;BME280;62428;51.412;5.432;2023-07-24T06:09:26;100230.59;;;16.68;100.00
74075;BME280;62428;51.412;5.432;2023-07-24T06:11:52;100235.44;;;16.75;100.00
74075;BME280;62428;51.412;5.432;2023-07-24T06:14:17;100231.31;;;16.81;100.00
74075;BME280;62428;51.412;5.432;2023-07-24T06:16:42;100226.34;;;16.83;100.00
74075;BME280;62428;51.412;5.432;2023-07-24T06:19:08;100238.78;;;16.84;100.00
74075;BME280;62428;51.412;5.432;2023-07-24T06:21:33;100238.78;;;16.84;100.00
74075;BME280;62428;51.412;5.432;2023-07-24T06:23:58;100247.38;;;16.86;100.00
74075;BME280;62428;51.412;5.432;2023-07-24T06:26:24;100246.25;;;16.87;100.00
74075;BME280;62428;51.412;5.432;2023-07-24T06:28:49;100240.56;;;16.92;100.00
74075;BME280;62428;51.412;5.432;2023-07-24T06:31:14;100244.16;;;16.96;100.00
74075;BME280;62428;51.412;5.432;2023-07-24T06:33:40;100239.94;;;16.99;100.00
74075;BME280;62428;51.412;5.432;2023-07-24T06:36:09;100240.72;;;16.99;100.00
74075;BME280;62428;51.412;5.432;2023-07-24T06:38:35;100230.78;;;17.03;100.00
74075;BME280;62428;51.412;5.432;2023-07-24T06:41:00;100236.63;;;17.05;100.00
74075;BME280;62428;51.412;5.432;2023-07-24T06:43:25;100240.03;;;17.02;100.00
74075;BME280;62428;51.412;5.432;2023-07-24T06:45:51;100245.81;;;17.01;100.00
74075;BME280;62428;51.412;5.432;2023-07-24T06:48:16;100241.19;;;17.01;100.00
74075;BME280;62428;51.412;5.432;2023-07-24T06:50:42;100247.75;;;17.00;100.00
74075;BME280;62428;51.412;5.432;2023-07-24T06:53:07;100244.94;;;16.97;100.00
74075;BME280;62428;51.412;5.432;2023-07-24T06:55:32;100238.72;;;16.96;100.00
74075;BME280;62428;51.412;5.432;2023-07-24T06:57:58;100253.06;;;16.97;100.00
74075;BME280;62428;51.412;5.432;2023-07-24T07:00:23;100244.94;;;16.97;100.00
74075;BME280;62428;51.412;5.432;2023-07-24T07:02:48;100249.59;;;16.96;100.00
74075;BME280;62428;51.412;5.432;2023-07-24T07:05:14;100250.00;;;16.98;100.00
74075;BME280;62428;51.412;5.432;2023-07-24T07:07:39;100244.59;;;16.98;100.00
74075;BME280;62428;51.412;5.432;2023-07-24T07:10:05;100246.88;;;16.96;100.00
74075;BME280;62428;51.412;5.432;2023-07-24T07:12:30;100246.88;;;16.96;100.00
74075;BME280;62428;51.412;5.432;2023-07-24T07:14:56;100235.19;;;16.96;100.00
74075;BME280;62428;51.412;5.432;2023-07-24T07:17:21;100232.16;;;16.97;100.00
74075;BME280;62428;51.412;5.432;2023-07-24T07:19:46;100234.50;;;16.99;100.00
74075;BME280;62428;51.412;5.432;2023-07-24T07:22:12;100230.41;;;17.05;100.00
74075;BME280;62428;51.412;5.432;2023-07-24T07:24:37;100228.22;;;17.10;100.00
74075;BME280;62428;51.412;5.432;2023-07-24T07:27:03;100225.59;;;17.14;100.00
74075;BME280;62428;51.412;5.432;2023-07-24T07:29:28;100235.75;;;17.17;100.00
74075;BME280;62428;51.412;5.432;2023-07-24T07:31:54;100225.78;;;17.21;100.00
74075;BME280;62428;51.412;5.432;2023-07-24T07:34:19;100235.22;;;17.27;100.00
74075;BME280;62428;51.412;5.432;2023-07-24T07:36:45;100221.91;;;17.38;100.00
74075;BME280;62428;51.412;5.432;2023-07-24T07:39:10;100230.66;;;17.47;100.00
74075;BME280;62428;51.412;5.432;2023-07-24T07:41:35;100224.16;;;17.52;100.00
74075;BME280;62428;51.412;5.432;2023-07-24T07:44:01;100220.81;;;17.59;100.00
74075;BME280;62428;51.412;5.432;2023-07-24T07:46:26;100225.19;;;17.63;100.00
74075;BME280;62428;51.412;5.432;2023-07-24T07:48:51;100228.69;;;17.64;100.00
74075;BME280;62428;51.412;5.432;2023-07-24T07:51:17;100231.22;;;17.73;100.00
74075;BME280;62428;51.412;5.432;2023-07-24T07:53:42;100231.38;;;17.80;100.00
74075;BME280;62428;51.412;5.432;2023-07-24T07:56:07;100238.91;;;17.86;100.00
74075;BME280;62428;51.412;5.432;2023-07-24T07:58:33;100230.47;;;17.92;100.00
74075;BME280;62428;51.412;5.432;2023-07-24T08:01:03;100238.97;;;17.90;100.00
74075;BME280;62428;51.412;5.432;2023-07-24T08:03:29;100227.25;;;17.86;100.00
74075;BME280;62428;51.412;5.432;2023-07-24T08:05:57;100227.59;;;17.84;100.00
74075;BME280;62428;51.412;5.432;2023-07-24T08:08:23;100223.31;;;17.83;100.00
74075;BME280;62428;51.412;5.432;2023-07-24T08:10:48;100218.66;;;17.84;100.00
74075;BME280;62428;51.412;5.432;2023-07-24T08:13:13;100221.13;;;17.89;100.00
74075;BME280;62428;51.412;5.432;2023-07-24T08:15:39;100219.53;;;17.88;100.00
74075;BME280;62428;51.412;5.432;2023-07-24T08:18:05;100215.63;;;17.85;100.00
74075;BME280;62428;51.412;5.432;2023-07-24T08:20:31;100222.50;;;17.83;100.00
74075;BME280;62428;51.412;5.432;2023-07-24T08:22:57;100223.31;;;17.83;100.00
74075;BME280;62428;51.412;5.432;2023-07-24T08:25:22;100211.75;;;17.86;100.00
74075;BME280;62428;51.412;5.432;2023-07-24T08:27:48;100214.25;;;17.95;100.00
74075;BME280;62428;51.412;5.432;2023-07-24T08:30:13;100210.47;;;18.00;100.00
74075;BME280;62428;51.412;5.432;2023-07-24T08:32:39;100224.56;;;18.05;100.00
74075;BME280;62428;51.412;5.432;2023-07-24T08:35:05;100228.41;;;18.04;100.00
74075;BME280;62428;51.412;5.432;2023-07-24T08:37:31;100227.63;;;18.04;100.00
74075;BME280;62428;51.412;5.432;2023-07-24T08:39:56;100227.56;;;18.00;100.00
74075;BME280;62428;51.412;5.432;2023-07-24T08:42:22;100223.63;;;17.98;100.00
74075;BME280;62428;51.412;5.432;2023-07-24T08:44:48;100227.13;;;17.98;100.00
74075;BME280;62428;51.412;5.432;2023-07-24T08:47:15;100225.97;;;17.99;100.00
74075;BME280;62428;51.412;5.432;2023-07-24T08:49:42;100221.69;;;17.98;100.00
74075;BME280;62428;51.412;5.432;2023-07-24T08:52:08;100215.09;;;17.99;100.00
74075;BME280;62428;51.412;5.432;2023-07-24T08:54:37;100219.56;;;18.08;100.00
74075;BME280;62428;51.412;5.432;2023-07-24T08:57:06;100209.41;;;18.24;100.00
74075;BME280;62428;51.412;5.432;2023-07-24T08:59:32;100208.88;;;18.38;100.00
74075;BME280;62428;51.412;5.432;2023-07-24T09:01:57;100210.66;;;18.50;100.00
74075;BME280;62428;51.412;5.432;2023-07-24T09:04:24;100203.47;;;18.61;100.00
74075;BME280;62428;51.412;5.432;2023-07-24T09:06:50;100188.75;;;18.85;100.00
74075;BME280;62428;51.412;5.432;2023-07-24T09:09:16;100195.22;;;19.23;100.00
74075;BME280;62428;51.412;5.432;2023-07-24T09:11:51;100195.75;;;19.59;100.00
74075;BME280;62428;51.412;5.432;2023-07-24T09:14:24;100193.38;;;19.84;97.90
74075;BME280;62428;51.412;5.432;2023-07-24T09:17:04;100187.22;;;19.91;97.93
74075;BME280;62428;51.412;5.432;2023-07-24T09:19:30;100174.72;;;19.86;94.60
74075;BME280;62428;51.412;5.432;2023-07-24T09:21:55;100174.81;;;19.93;93.96
74075;BME280;62428;51.412;5.432;2023-07-24T09:24:21;100165.44;;;19.94;91.86
74075;BME280;62428;51.412;5.432;2023-07-24T09:26:55;100162.28;;;19.89;94.84
74075;BME280;62428;51.412;5.432;2023-07-24T09:29:20;100169.94;;;19.80;92.56
74075;BME280;62428;51.412;5.432;2023-07-24T09:31:46;100162.78;;;19.68;92.94
74075;BME280;62428;51.412;5.432;2023-07-24T09:34:16;100154.81;;;19.55;93.92
74075;BME280;62428;51.412;5.432;2023-07-24T09:36:42;100154.31;;;19.46;93.09
74075;BME280;62428;51.412;5.432;2023-07-24T09:39:08;100146.78;;;19.36;93.19
74075;BME280;62428;51.412;5.432;2023-07-24T09:41:36;100144.31;;;19.27;94.27
74075;BME280;62428;51.412;5.432;2023-07-24T09:44:01;100137.19;;;19.19;94.93
74075;BME280;62428;51.412;5.432;2023-07-24T09:46:27;100132.00;;;19.10;95.45
74075;BME280;62428;51.412;5.432;2023-07-24T09:48:54;100127.63;;;19.02;95.60
74075;BME280;62428;51.412;5.432;2023-07-24T09:51:20;100120.06;;;18.92;95.97
74075;BME280;62428;51.412;5.432;2023-07-24T09:53:59;100122.31;;;18.86;97.46
74075;BME280;62428;51.412;5.432;2023-07-24T09:56:26;100126.84;;;18.78;96.57
74075;BME280;62428;51.412;5.432;2023-07-24T09:58:52;100132.94;;;18.72;95.25
74075;BME280;62428;51.412;5.432;2023-07-24T10:01:21;100129.75;;;18.66;96.39
74075;BME280;62428;51.412;5.432;2023-07-24T10:03:49;100132.41;;;18.62;96.09
74075;BME280;62428;51.412;5.432;2023-07-24T10:06:16;100147.88;;;18.58;95.69
74075;BME280;62428;51.412;5.432;2023-07-24T10:08:42;100143.88;;;18.52;97.14
74075;BME280;62428;51.412;5.432;2023-07-24T10:11:12;100145.41;;;18.50;98.87
74075;BME280;62428;51.412;5.432;2023-07-24T10:13:38;100148.47;;;18.48;99.89
74075;BME280;62428;51.412;5.432;2023-07-24T10:16:04;100138.66;;;18.43;99.98
74075;BME280;62428;51.412;5.432;2023-07-24T10:18:33;100153.44;;;18.42;100.00
74075;BME280;62428;51.412;5.432;2023-07-24T10:21:04;100175.53;;;18.41;100.00
74075;BME280;62428;51.412;5.432;2023-07-24T10:23:30;100176.25;;;18.38;100.00
74075;BME280;62428;51.412;5.432;2023-07-24T10:25:56;100177.75;;;18.35;100.00
74075;BME280;62428;51.412;5.432;2023-07-24T10:28:38;100159.44;;;18.32;100.00
74075;BME280;62428;51.412;5.432;2023-07-24T10:31:08;100156.66;;;18.29;100.00
74075;BME280;62428;51.412;5.432;2023-07-24T10:33:43;100154.28;;;18.27;100.00
74075;BME280;62428;51.412;5.432;2023-07-24T10:36:09;100150.38;;;18.24;100.00
74075;BME280;62428;51.412;5.432;2023-07-24T10:38:43;100163.19;;;18.24;100.00
74075;BME280;62428;51.412;5.432;2023-07-24T10:41:10;100176.00;;;18.23;100.00
74075;BME280;62428;51.412;5.432;2023-07-24T10:43:58;100176.78;;;18.24;100.00
74075;BME280;62428;51.412;5.432;2023-07-24T10:46:38;100182.63;;;18.26;100.00
74075;BME280;62428;51.412;5.432;2023-07-24T10:49:04;100181.94;;;18.29;100.00
74075;BME280;62428;51.412;5.432;2023-07-24T10:51:30;100177.75;;;18.35;100.00
74075;BME280;62428;51.412;5.432;2023-07-24T10:53:59;100177.19;;;18.46;100.00
74075;BME280;62428;51.412;5.432;2023-07-24T10:56:24;100171.06;;;18.52;99.50
74075;BME280;62428;51.412;5.432;2023-07-24T10:58:50;100164.56;;;18.57;99.01
74075;BME280;62428;51.412;5.432;2023-07-24T11:01:17;100167.69;;;18.59;98.19
74075;BME280;62428;51.412;5.432;2023-07-24T11:03:43;100163.81;;;18.60;96.68
74075;BME280;62428;51.412;5.432;2023-07-24T11:06:14;100167.34;;;18.60;95.28
74075;BME280;62428;51.412;5.432;2023-07-24T11:08:40;100172.44;;;18.62;93.27
74075;BME280;62428;51.412;5.432;2023-07-24T11:11:05;100186.44;;;18.64;92.90
74075;BME280;62428;51.412;5.432;2023-07-24T11:13:31;100176.34;;;18.64;92.22
74075;BME280;62428;51.412;5.432;2023-07-24T11:16:04;100180.66;;;18.66;92.88
74075;BME280;62428;51.412;5.432;2023-07-24T11:18:30;100172.50;;;18.66;93.77
74075;BME280;62428;51.412;5.432;2023-07-24T11:20:56;100184.16;;;18.66;95.96
74075;BME280;62428;51.412;5.432;2023-07-24T11:23:22;100183.38;;;18.66;95.71
74075;BME280;62428;51.412;5.432;2023-07-24T11:25:52;100188.00;;;18.65;96.43
74075;BME280;62428;51.412;5.432;2023-07-24T11:28:18;100184.88;;;18.63;97.76
74075;BME280;62428;51.412;5.432;2023-07-24T11:30:43;100191.00;;;18.60;99.48
74075;BME280;62428;51.412;5.432;2023-07-24T11:33:10;100196.47;;;18.60;100.00
74075;BME280;62428;51.412;5.432;2023-07-24T11:35:36;100203.47;;;18.61;99.42
74075;BME280;62428;51.412;5.432;2023-07-24T11:38:05;100198.03;;;18.61;100.00
74075;BME280;62428;51.412;5.432;2023-07-24T11:40:35;100205.41;;;18.60;100.00
74075;BME280;62428;51.412;5.432;2023-07-24T11:43:02;100209.63;;;18.58;100.00
74075;BME280;62428;51.412;5.432;2023-07-24T11:45:29;100215.00;;;18.54;100.00
74075;BME280;62428;51.412;5.432;2023-07-24T11:47:55;100197.84;;;18.50;100.00
74075;BME280;62428;51.412;5.432;2023-07-24T11:50:22;100202.50;;;18.50;100.00
74075;BME280;62428;51.412;5.432;2023-07-24T11:52:49;100200.91;;;18.49;100.00
74075;BME280;62428;51.412;5.432;2023-07-24T11:55:20;100194.69;;;18.48;100.00
74075;BME280;62428;51.412;5.432;2023-07-24T11:57:56;100184.31;;;18.54;100.00
74075;BME280;62428;51.412;5.432;2023-07-24T12:00:22;100181.38;;;18.62;100.00
74075;BME280;62428;51.412;5.432;2023-07-24T12:02:48;100174.47;;;18.69;100.00
74075;BME280;62428;51.412;5.432;2023-07-24T12:05:14;100171.50;;;18.77;100.00
74075;BME280;62428;51.412;5.432;2023-07-24T12:07:39;100171.66;;;18.85;100.00
74075;BME280;62428;51.412;5.432;2023-07-24T12:10:05;100156.91;;;18.86;100.00
74075;BME280;62428;51.412;5.432;2023-07-24T12:12:42;100160.13;;;18.91;100.00
74075;BME280;62428;51.412;5.432;2023-07-24T12:15:09;100148.53;;;18.98;100.00
74075;BME280;62428;51.412;5.432;2023-07-24T12:17:35;100150.22;;;19.06;100.00
74075;BME280;62428;51.412;5.432;2023-07-24T12:20:00;100154.97;;;19.13;100.00
74075;BME280;62428;51.412;5.432;2023-07-24T12:22:27;100148.03;;;19.15;100.00
74075;BME280;62428;51.412;5.432;2023-07-24T12:24:53;100158.63;;;19.20;100.00
74075;BME280;62428;51.412;5.432;2023-07-24T12:27:18;100155.13;;;19.24;100.00
74075;BME280;62428;51.412;5.432;2023-07-24T12:29:43;100157.09;;;19.23;100.00
74075;BME280;62428;51.412;5.432;2023-07-24T12:32:09;100157.09;;;19.23;100.00
74075;BME280;62428;51.412;5.432;2023-07-24T12:34:34;100156.00;;;19.28;100.00
74075;BME280;62428;51.412;5.432;2023-07-24T12:37:00;100160.50;;;19.43;100.00
74075;BME280;62428;51.412;5.432;2023-07-24T12:39:25;100163.00;;;19.55;98.84